Oosterdam — PBKH — position and weather

sailwx.info

Track history (hours):
 
Tides and Currents Weather Stations Pressure Air Temp Water Temp Dewpoint Dewpoint Depression Visibility Wind Speed Wind Dir Waves Ship Positions

Oosterdam

Operator: Holland America Line

Last reported at 2016-Jul-24 04:33 UTC. Time now 2016-Jul-24 04:51 UTC.
Position N 40°45' E 014°12'.

Type: Passenger vessel. MMSI: 245417000.

Date/timePositionNaut miles runAvg speedWind from/ knotsBaromVisibWave heightAir tempDewpointWater temp
2016-Jul-24 04:33N 40°45' E 014°12'1313.2
2016-Jul-24 03:33N 40°36' E 013°59'1312.9
2016-Jul-24 02:33N 40°41' E 013°43'1313.0
2016-Jul-24 01:33N 40°51' E 013°32'1313.0
2016-Jul-24 00:33N 40°58' E 013°18'1312.9
2016-Jul-23 23:33N 41°06' E 013°04'1312.7
2016-Jul-23 22:33N 41°13' E 012°50'5312.9
2016-Jul-23 18:24N 41°49' E 011°57'16 2.1
2016-Jul-23 11:00N 42°00' E 011°42'10 1.2 080 / 181013.0 5.4 0.530.014.119.5
2016-Jul-23 02:22N 42°06' E 011°30'1213.7
2016-Jul-23 01:28N 42°07' E 011°14'1415.6
2016-Jul-23 00:33N 42°12' E 010°56'1615.7
2016-Jul-22 23:33N 42°21' E 010°39'1514.5
2016-Jul-22 22:33N 42°30' E 010°24'1514.8
2016-Jul-22 21:34N 42°39' E 010°07'1414.0
2016-Jul-22 20:33N 42°52' E 010°03'1414.1
2016-Jul-22 19:33N 43°06' E 010°05'610.3
2016-Jul-22 19:00N 43°12' E 010°06'817.5 130 / 141012.010.8 24.0
2016-Jul-22 18:33N 43°19' E 010°10'1312.7
2016-Jul-22 17:33N 43°31' E 010°14'3 3.3
2016-Jul-22 16:32N 43°33' E 010°18'0 0.0
2016-Jul-22 15:32N 43°33' E 010°18'0 0.0
2016-Jul-22 14:32N 43°33' E 010°18'0 0.0
2016-Jul-22 13:32N 43°33' E 010°18'0 0.0
2016-Jul-22 12:29N 43°33' E 010°18'0 0.0
2016-Jul-22 11:32N 43°33' E 010°18'0 0.0
2016-Jul-22 10:32N 43°33' E 010°18'0 0.0
2016-Jul-22 09:32N 43°33' E 010°18'0 0.0
2016-Jul-22 08:32N 43°33' E 010°18'0 0.0
2016-Jul-22 07:32N 43°33' E 010°18'0 0.0
2016-Jul-22 04:32N 43°33' E 010°18'0 0.5
2016-Jul-22 03:33N 43°33' E 010°18'8 8.4
2016-Jul-22 02:33N 43°29' E 010°07'1212.0
2016-Jul-22 01:33N 43°32' E 009°51'1212.1
2016-Jul-22 00:33N 43°35' E 009°35'1111.2
2016-Jul-21 23:33N 43°34' E 009°20'1111.3
2016-Jul-21 22:33N 43°36' E 009°04'1211.7
2016-Jul-21 21:33N 43°36' E 008°48'1111.2
2016-Jul-21 20:33N 43°38' E 008°33'1111.1
2016-Jul-21 19:33N 43°40' E 008°18'1210.9
2016-Jul-21 18:28N 43°40' E 008°02'1310.2
2016-Jul-21 17:10N 43°41' E 007°43'811.5
2016-Jul-21 16:31N 43°43' E 007°33'5 5.2
2016-Jul-21 15:28N 43°44' E 007°26'0 0.0
2016-Jul-21 14:31N 43°44' E 007°26'0 0.0
2016-Jul-21 13:32N 43°44' E 007°26'0 0.0
2016-Jul-21 12:31N 43°44' E 007°26'0 0.0
2016-Jul-21 11:16N 43°44' E 007°26'0 0.0
2016-Jul-21 08:10N 43°44' E 007°26'4 1.1
2016-Jul-21 04:33N 43°41' E 007°29'8 7.8
2016-Jul-21 03:31N 43°33' E 007°32'7 7.8
2016-Jul-21 02:33N 43°26' E 007°34'8 7.7
2016-Jul-21 01:28N 43°18' E 007°37'7 7.6
2016-Jul-21 00:33N 43°11' E 007°38'5 8.8
2016-Jul-21 00:00N 43°06' E 007°36'3 7.6 250 / 101014.010.8 0.521.6
2016-Jul-20 23:33N 43°03' E 007°38'9 8.6
2016-Jul-20 22:33N 42°58' E 007°47'7 7.2
2016-Jul-20 21:33N 42°54' E 007°56'712.2
2016-Jul-20 21:00N 42°48' E 008°00'510.7 190 / 201015.010.8 0.522.515.123.5
2016-Jul-20 20:33N 42°51' E 008°05'10 9.9
2016-Jul-20 19:33N 42°46' E 008°17'7 7.0
2016-Jul-20 18:33N 42°43' E 008°25'7 6.7
2016-Jul-20 17:33N 42°40' E 008°33'4 7.2
2016-Jul-20 17:00N 42°36' E 008°36'510.7 230 / 151017.010.8 0.524.317.124.0
2016-Jul-20 16:33N 42°36' E 008°42'4 3.5
2016-Jul-20 15:29N 42°34' E 008°46'0 0.0
2016-Jul-20 14:29N 42°34' E 008°46'0 0.0
2016-Jul-20 13:32N 42°34' E 008°46'0 0.0
2016-Jul-20 12:32N 42°34' E 008°46'0 0.0
2016-Jul-20 11:32N 42°34' E 008°46'0 0.0
2016-Jul-20 10:32N 42°34' E 008°46'0 0.0
2016-Jul-20 09:32N 42°34' E 008°46'0 0.0
2016-Jul-20 08:29N 42°34' E 008°46'0 0.1
2016-Jul-20 07:32N 42°34' E 008°46'0 0.1
2016-Jul-20 06:26N 42°34' E 008°46'0 0.1
2016-Jul-20 05:33N 42°34' E 008°46'8 8.5
2016-Jul-20 04:34N 42°36' E 008°35'1414.3
2016-Jul-20 03:33N 42°37' E 008°16'1414.0
2016-Jul-20 02:33N 42°41' E 007°58'1413.9
2016-Jul-20 01:33N 42°43' E 007°39'1414.2
2016-Jul-20 00:33N 42°43' E 007°20'1017.9
2016-Jul-20 00:00N 42°42' E 007°06'613.8 280 / 181018.010.8 0.521.8
2016-Jul-19 23:33N 42°47' E 007°01'713.2
2016-Jul-19 23:00N 42°42' E 006°54'1023.3 260 / 141018.010.8 0.521.8
2016-Jul-19 22:33N 42°47' E 006°42'1313.0
2016-Jul-19 21:33N 42°53' E 006°26'5513.7
2016-Jul-19 17:33N 43°09' E 005°15'1010.0
2016-Jul-19 16:33N 43°19' E 005°14'4 4.3
2016-Jul-19 15:31N 43°21' E 005°20'0 0.0
2016-Jul-19 14:31N 43°21' E 005°20'0 0.0
2016-Jul-19 12:31N 43°21' E 005°20'0 0.0
2016-Jul-19 11:31N 43°21' E 005°20'0 0.0
2016-Jul-19 10:19N 43°21' E 005°20'0 0.0
2016-Jul-19 09:25N 43°21' E 005°20'0 0.0
2016-Jul-19 08:25N 43°21' E 005°20'0 0.0
2016-Jul-19 07:13N 43°21' E 005°20'5 1.8
2016-Jul-19 04:33N 43°18' E 005°14'9 9.1
2016-Jul-19 03:33N 43°10' E 005°08'21 9.3
2016-Jul-19 01:17N 42°52' E 004°54'620.6
2016-Jul-19 01:00N 42°48' E 004°48'5 5.5 180 / 121019.010.8 0.522.019.521.0
2016-Jul-19 00:10N 42°43' E 004°47'849.7
2016-Jul-19 00:00N 42°36' E 004°42'3 4.7 160 / 121019.010.8 0.522.019.521.0
2016-Jul-18 23:27N 42°38' E 004°43'8 8.3
2016-Jul-18 22:33N 42°31' E 004°40'9 8.7
2016-Jul-18 21:33N 42°24' E 004°34'916.9
2016-Jul-18 21:00N 42°18' E 004°24'10 6.9 170 / 121019.010.8 0.521.1
2016-Jul-18 19:32N 42°09' E 004°18'1711.3
2016-Jul-18 18:00N 41°54' E 004°06'5 5.2 160 / 121019.010.8 0.522.019.521.0
2016-Jul-18 17:07N 41°50' E 004°03'6 9.7
2016-Jul-18 16:32N 41°45' E 003°59'9 9.6
2016-Jul-18 15:33N 41°37' E 003°53'9 9.4
2016-Jul-18 14:33N 41°29' E 003°46'10 9.5
2016-Jul-18 13:33N 41°21' E 003°40'10 9.2
2016-Jul-18 12:29N 41°13' E 003°33'8 8.9
2016-Jul-18 11:33N 41°05' E 003°27'9 8.9
2016-Jul-18 10:33N 40°58' E 003°21'8 8.5
2016-Jul-18 09:33N 40°51' E 003°15'9 8.6
2016-Jul-18 08:33N 40°43' E 003°09'8 8.4
2016-Jul-18 07:33N 40°36' E 003°04'8 8.5
2016-Jul-18 06:33N 40°29' E 002°58'8 8.1
2016-Jul-18 05:33N 40°22' E 002°52'8 8.4
2016-Jul-18 04:33N 40°15' E 002°47'9 8.6
2016-Jul-18 03:33N 40°07' E 002°41'9 8.6
2016-Jul-18 02:33N 39°60' E 002°35'9 9.0
2016-Jul-18 01:33N 39°52' E 002°29'9 9.4
2016-Jul-18 00:33N 39°44' E 002°22'915.6
2016-Jul-18 00:00N 39°36' E 002°18'2 5.2 150 / 191019.010.8 0.522.013.425.0
2016-Jul-17 23:33N 39°35' E 002°16'1010.2
2016-Jul-17 22:33N 39°28' E 002°25'8 7.9
2016-Jul-17 21:33N 39°28' E 002°35'6 5.5
2016-Jul-17 20:28N 39°33' E 002°38'0 0.0
2016-Jul-17 19:31N 39°33' E 002°38'0 0.0
2016-Jul-17 18:31N 39°33' E 002°38'4 7.0
2016-Jul-17 18:00N 39°30' E 002°36'4 7.7 130 / 101019.010.8 0.526.017.125.0
2016-Jul-17 17:31N 39°33' E 002°38'4 7.0
2016-Jul-17 17:00N 39°30' E 002°36'4 7.7 120 / 111019.010.8 0.527.018.025.0
2016-Jul-17 16:31N 39°33' E 002°38'0 0.0
2016-Jul-17 15:31N 39°33' E 002°38'0 0.0
2016-Jul-17 14:31N 39°33' E 002°38'0 0.0
2016-Jul-17 13:31N 39°33' E 002°38'0 0.0
2016-Jul-17 12:28N 39°33' E 002°38'0 0.0
2016-Jul-17 11:31N 39°33' E 002°38'0 0.0
2016-Jul-17 10:31N 39°33' E 002°38'0 0.0
2016-Jul-17 09:31N 39°33' E 002°38'0 0.0
2016-Jul-17 08:31N 39°33' E 002°38'0 0.0
2016-Jul-17 07:31N 39°33' E 002°38'0 0.0
2016-Jul-17 06:31N 39°33' E 002°38'6 3.1
2016-Jul-17 04:34N 39°28' E 002°35'1212.1
2016-Jul-17 03:33N 39°23' E 002°20'1312.5
2016-Jul-17 02:33N 39°19' E 002°05'1312.9
2016-Jul-17 01:33N 39°16' E 001°49'1119.0
2016-Jul-17 01:00N 39°12' E 001°36'1111.1 130 / 61019.010.8 0.523.016.125.0
2016-Jul-17 00:00N 39°06' E 001°24'7915.8 160 / 51019.010.8 0.523.016.125.0
2016-Jul-16 19:00N 38°30' W 000°06'126126.0 180 / 81019.010.8 0.523.016.125.0
2016-Jul-16 18:00N 36°24' W 000°06'107 9.2 100 / 101019.010.8 0.524.016.825.0
2016-Jul-16 06:22N 38°10' W 000°23'3117.0
2016-Jul-16 04:33N 37°39' W 000°28'1918.6
2016-Jul-16 03:33N 37°25' W 000°43'10118.2
2016-Jul-15 22:00N 36°18' W 002°18'2020.2 060 / 401017.010.8 2.025.019.424.0
2016-Jul-15 21:00N 36°24' W 002°42'5317.8 060 / 401017.010.8 2.025.019.424.0
2016-Jul-15 18:00N 36°30' W 003°48'45 2.7 100 / 321016.010.8 2.525.019.424.0
2016-Jul-15 01:00N 36°18' W 004°42'1111.4 050 / 151017.0 5.4 0.522.314.423.0
2016-Jul-15 00:00N 36°12' W 004°54'12 8.6 090 / 151017.0 5.4 0.522.314.423.0
2016-Jul-14 22:33N 36°08' W 005°09'9 8.7
2016-Jul-14 21:33N 36°05' W 005°19'4 3.5
2016-Jul-14 20:18N 36°09' W 005°22'0 0.0
2016-Jul-14 19:30N 36°09' W 005°22'0 0.0
2016-Jul-14 18:33N 36°09' W 005°22'0 0.0
2016-Jul-14 17:33N 36°09' W 005°22'0 0.0
2016-Jul-14 16:30N 36°09' W 005°22'0 0.0
2016-Jul-14 15:30N 36°09' W 005°22'0 0.0
2016-Jul-14 14:33N 36°09' W 005°22'0 0.0
2016-Jul-14 13:33N 36°09' W 005°22'0 0.0
2016-Jul-14 12:30N 36°09' W 005°22'0 0.0
2016-Jul-14 11:27N 36°09' W 005°22'0 0.0
2016-Jul-14 10:33N 36°09' W 005°22'0 0.0
2016-Jul-14 09:23N 36°09' W 005°22'0 0.0
2016-Jul-14 08:32N 36°09' W 005°22'0 0.0
2016-Jul-14 07:33N 36°09' W 005°22'0 0.0
2016-Jul-14 06:29N 36°09' W 005°22'0 0.0
2016-Jul-14 05:33N 36°09' W 005°22'6 5.6
2016-Jul-14 04:33N 36°03' W 005°22'  
Track history (hours):
 
Tides and Currents Weather Stations Pressure Air Temp Water Temp Dewpoint Dewpoint Depression Visibility Wind Speed Wind Dir Waves Ship Positions

Oosterdam

Operator: Holland America Line

Last reported at 2016-Jul-24 04:33 UTC. Time now 2016-Jul-24 04:51 UTC.
Position N 40°45' E 014°12'.

Type: Passenger vessel. MMSI: 245417000.

Date/timePositionNaut miles runAvg speedWind from/ knotsBaromVisibWave heightAir tempDewpointWater temp
2016-Jul-24 04:33N 40°45' E 014°12'1313.2
2016-Jul-24 03:33N 40°36' E 013°59'1312.9
2016-Jul-24 02:33N 40°41' E 013°43'1313.0
2016-Jul-24 01:33N 40°51' E 013°32'1313.0
2016-Jul-24 00:33N 40°58' E 013°18'1312.9
2016-Jul-23 23:33N 41°06' E 013°04'1312.7
2016-Jul-23 22:33N 41°13' E 012°50'5312.9
2016-Jul-23 18:24N 41°49' E 011°57'16 2.1
2016-Jul-23 11:00N 42°00' E 011°42'10 1.2 080 / 181013.0 5.4 0.530.014.119.5
2016-Jul-23 02:22N 42°06' E 011°30'1213.7
2016-Jul-23 01:28N 42°07' E 011°14'1415.6
2016-Jul-23 00:33N 42°12' E 010°56'1615.7
2016-Jul-22 23:33N 42°21' E 010°39'1514.5
2016-Jul-22 22:33N 42°30' E 010°24'1514.8
2016-Jul-22 21:34N 42°39' E 010°07'1414.0
2016-Jul-22 20:33N 42°52' E 010°03'1414.1
2016-Jul-22 19:33N 43°06' E 010°05'610.3
2016-Jul-22 19:00N 43°12' E 010°06'817.5 130 / 141012.010.8 24.0
2016-Jul-22 18:33N 43°19' E 010°10'1312.7
2016-Jul-22 17:33N 43°31' E 010°14'3 3.3
2016-Jul-22 16:32N 43°33' E 010°18'0 0.0
2016-Jul-22 15:32N 43°33' E 010°18'0 0.0
2016-Jul-22 14:32N 43°33' E 010°18'0 0.0
2016-Jul-22 13:32N 43°33' E 010°18'0 0.0
2016-Jul-22 12:29N 43°33' E 010°18'0 0.0
2016-Jul-22 11:32N 43°33' E 010°18'0 0.0
2016-Jul-22 10:32N 43°33' E 010°18'0 0.0
2016-Jul-22 09:32N 43°33' E 010°18'0 0.0
2016-Jul-22 08:32N 43°33' E 010°18'0 0.0
2016-Jul-22 07:32N 43°33' E 010°18'0 0.0
2016-Jul-22 04:32N 43°33' E 010°18'0 0.5
2016-Jul-22 03:33N 43°33' E 010°18'8 8.4
2016-Jul-22 02:33N 43°29' E 010°07'1212.0
2016-Jul-22 01:33N 43°32' E 009°51'1212.1
2016-Jul-22 00:33N 43°35' E 009°35'1111.2
2016-Jul-21 23:33N 43°34' E 009°20'1111.3
2016-Jul-21 22:33N 43°36' E 009°04'1211.7
2016-Jul-21 21:33N 43°36' E 008°48'1111.2
2016-Jul-21 20:33N 43°38' E 008°33'1111.1
2016-Jul-21 19:33N 43°40' E 008°18'1210.9
2016-Jul-21 18:28N 43°40' E 008°02'1310.2
2016-Jul-21 17:10N 43°41' E 007°43'811.5
2016-Jul-21 16:31N 43°43' E 007°33'5 5.2
2016-Jul-21 15:28N 43°44' E 007°26'0 0.0
2016-Jul-21 14:31N 43°44' E 007°26'0 0.0
2016-Jul-21 13:32N 43°44' E 007°26'0 0.0
2016-Jul-21 12:31N 43°44' E 007°26'0 0.0
2016-Jul-21 11:16N 43°44' E 007°26'0 0.0
2016-Jul-21 08:10N 43°44' E 007°26'4 1.1
2016-Jul-21 04:33N 43°41' E 007°29'8 7.8
2016-Jul-21 03:31N 43°33' E 007°32'7 7.8
2016-Jul-21 02:33N 43°26' E 007°34'8 7.7
2016-Jul-21 01:28N 43°18' E 007°37'7 7.6
2016-Jul-21 00:33N 43°11' E 007°38'5 8.8
2016-Jul-21 00:00N 43°06' E 007°36'3 7.6 250 / 101014.010.8 0.521.6
2016-Jul-20 23:33N 43°03' E 007°38'9 8.6
2016-Jul-20 22:33N 42°58' E 007°47'7 7.2
2016-Jul-20 21:33N 42°54' E 007°56'712.2
2016-Jul-20 21:00N 42°48' E 008°00'510.7 190 / 201015.010.8 0.522.515.123.5
2016-Jul-20 20:33N 42°51' E 008°05'10 9.9
2016-Jul-20 19:33N 42°46' E 008°17'7 7.0
2016-Jul-20 18:33N 42°43' E 008°25'7 6.7
2016-Jul-20 17:33N 42°40' E 008°33'4 7.2
2016-Jul-20 17:00N 42°36' E 008°36'510.7 230 / 151017.010.8 0.524.317.124.0
2016-Jul-20 16:33N 42°36' E 008°42'4 3.5
2016-Jul-20 15:29N 42°34' E 008°46'0 0.0
2016-Jul-20 14:29N 42°34' E 008°46'0 0.0
2016-Jul-20 13:32N 42°34' E 008°46'0 0.0
2016-Jul-20 12:32N 42°34' E 008°46'0 0.0
2016-Jul-20 11:32N 42°34' E 008°46'0 0.0
2016-Jul-20 10:32N 42°34' E 008°46'0 0.0
2016-Jul-20 09:32N 42°34' E 008°46'0 0.0
2016-Jul-20 08:29N 42°34' E 008°46'0 0.1
2016-Jul-20 07:32N 42°34' E 008°46'0 0.1
2016-Jul-20 06:26N 42°34' E 008°46'0 0.1
2016-Jul-20 05:33N 42°34' E 008°46'8 8.5
2016-Jul-20 04:34N 42°36' E 008°35'1414.3
2016-Jul-20 03:33N 42°37' E 008°16'1414.0
2016-Jul-20 02:33N 42°41' E 007°58'1413.9
2016-Jul-20 01:33N 42°43' E 007°39'1414.2
2016-Jul-20 00:33N 42°43' E 007°20'1017.9
2016-Jul-20 00:00N 42°42' E 007°06'613.8 280 / 181018.010.8 0.521.8
2016-Jul-19 23:33N 42°47' E 007°01'713.2
2016-Jul-19 23:00N 42°42' E 006°54'1023.3 260 / 141018.010.8 0.521.8
2016-Jul-19 22:33N 42°47' E 006°42'1313.0
2016-Jul-19 21:33N 42°53' E 006°26'5513.7
2016-Jul-19 17:33N 43°09' E 005°15'1010.0
2016-Jul-19 16:33N 43°19' E 005°14'4 4.3
2016-Jul-19 15:31N 43°21' E 005°20'0 0.0
2016-Jul-19 14:31N 43°21' E 005°20'0 0.0
2016-Jul-19 12:31N 43°21' E 005°20'0 0.0
2016-Jul-19 11:31N 43°21' E 005°20'0 0.0
2016-Jul-19 10:19N 43°21' E 005°20'0 0.0
2016-Jul-19 09:25N 43°21' E 005°20'0 0.0
2016-Jul-19 08:25N 43°21' E 005°20'0 0.0
2016-Jul-19 07:13N 43°21' E 005°20'5 1.8
2016-Jul-19 04:33N 43°18' E 005°14'9 9.1
2016-Jul-19 03:33N 43°10' E 005°08'21 9.3
2016-Jul-19 01:17N 42°52' E 004°54'620.6
2016-Jul-19 01:00N 42°48' E 004°48'5 5.5 180 / 121019.010.8 0.522.019.521.0
2016-Jul-19 00:10N 42°43' E 004°47'849.7
2016-Jul-19 00:00N 42°36' E 004°42'3 4.7 160 / 121019.010.8 0.522.019.521.0
2016-Jul-18 23:27N 42°38' E 004°43'8 8.3
2016-Jul-18 22:33N 42°31' E 004°40'9 8.7
2016-Jul-18 21:33N 42°24' E 004°34'916.9
2016-Jul-18 21:00N 42°18' E 004°24'10 6.9 170 / 121019.010.8 0.521.1
2016-Jul-18 19:32N 42°09' E 004°18'1711.3
2016-Jul-18 18:00N 41°54' E 004°06'5 5.2 160 / 121019.010.8 0.522.019.521.0
2016-Jul-18 17:07N 41°50' E 004°03'6 9.7
2016-Jul-18 16:32N 41°45' E 003°59'9 9.6
2016-Jul-18 15:33N 41°37' E 003°53'9 9.4
2016-Jul-18 14:33N 41°29' E 003°46'10 9.5
2016-Jul-18 13:33N 41°21' E 003°40'10 9.2
2016-Jul-18 12:29N 41°13' E 003°33'8 8.9
2016-Jul-18 11:33N 41°05' E 003°27'9 8.9
2016-Jul-18 10:33N 40°58' E 003°21'8 8.5
2016-Jul-18 09:33N 40°51' E 003°15'9 8.6
2016-Jul-18 08:33N 40°43' E 003°09'8 8.4
2016-Jul-18 07:33N 40°36' E 003°04'8 8.5
2016-Jul-18 06:33N 40°29' E 002°58'8 8.1
2016-Jul-18 05:33N 40°22' E 002°52'8 8.4
2016-Jul-18 04:33N 40°15' E 002°47'9 8.6
2016-Jul-18 03:33N 40°07' E 002°41'9 8.6
2016-Jul-18 02:33N 39°60' E 002°35'9 9.0
2016-Jul-18 01:33N 39°52' E 002°29'9 9.4
2016-Jul-18 00:33N 39°44' E 002°22'915.6
2016-Jul-18 00:00N 39°36' E 002°18'2 5.2 150 / 191019.010.8 0.522.013.425.0
2016-Jul-17 23:33N 39°35' E 002°16'1010.2
2016-Jul-17 22:33N 39°28' E 002°25'8 7.9
2016-Jul-17 21:33N 39°28' E 002°35'6 5.5
2016-Jul-17 20:28N 39°33' E 002°38'0 0.0
2016-Jul-17 19:31N 39°33' E 002°38'0 0.0
2016-Jul-17 18:31N 39°33' E 002°38'4 7.0
2016-Jul-17 18:00N 39°30' E 002°36'4 7.7 130 / 101019.010.8 0.526.017.125.0
2016-Jul-17 17:31N 39°33' E 002°38'4 7.0
2016-Jul-17 17:00N 39°30' E 002°36'4 7.7 120 / 111019.010.8 0.527.018.025.0
2016-Jul-17 16:31N 39°33' E 002°38'0 0.0
2016-Jul-17 15:31N 39°33' E 002°38'0 0.0
2016-Jul-17 14:31N 39°33' E 002°38'0 0.0
2016-Jul-17 13:31N 39°33' E 002°38'0 0.0
2016-Jul-17 12:28N 39°33' E 002°38'0 0.0
2016-Jul-17 11:31N 39°33' E 002°38'0 0.0
2016-Jul-17 10:31N 39°33' E 002°38'0 0.0
2016-Jul-17 09:31N 39°33' E 002°38'0 0.0
2016-Jul-17 08:31N 39°33' E 002°38'0 0.0
2016-Jul-17 07:31N 39°33' E 002°38'0 0.0
2016-Jul-17 06:31N 39°33' E 002°38'6 3.1
2016-Jul-17 04:34N 39°28' E 002°35'1212.1
2016-Jul-17 03:33N 39°23' E 002°20'1312.5
2016-Jul-17 02:33N 39°19' E 002°05'1312.9
2016-Jul-17 01:33N 39°16' E 001°49'1119.0
2016-Jul-17 01:00N 39°12' E 001°36'1111.1 130 / 61019.010.8 0.523.016.125.0
2016-Jul-17 00:00N 39°06' E 001°24'7915.8 160 / 51019.010.8 0.523.016.125.0
2016-Jul-16 19:00N 38°30' W 000°06'126126.0 180 / 81019.010.8 0.523.016.125.0
2016-Jul-16 18:00N 36°24' W 000°06'107 9.2 100 / 101019.010.8 0.524.016.825.0
2016-Jul-16 06:22N 38°10' W 000°23'3117.0
2016-Jul-16 04:33N 37°39' W 000°28'1918.6
2016-Jul-16 03:33N 37°25' W 000°43'10118.2
2016-Jul-15 22:00N 36°18' W 002°18'2020.2 060 / 401017.010.8 2.025.019.424.0
2016-Jul-15 21:00N 36°24' W 002°42'5317.8 060 / 401017.010.8 2.025.019.424.0
2016-Jul-15 18:00N 36°30' W 003°48'45 2.7 100 / 321016.010.8 2.525.019.424.0
2016-Jul-15 01:00N 36°18' W 004°42'1111.4 050 / 151017.0 5.4 0.522.314.423.0
2016-Jul-15 00:00N 36°12' W 004°54'12 8.6 090 / 151017.0 5.4 0.522.314.423.0
2016-Jul-14 22:33N 36°08' W 005°09'9 8.7
2016-Jul-14 21:33N 36°05' W 005°19'4 3.5
2016-Jul-14 20:18N 36°09' W 005°22'0 0.0
2016-Jul-14 19:30N 36°09' W 005°22'0 0.0
2016-Jul-14 18:33N 36°09' W 005°22'0 0.0
2016-Jul-14 17:33N 36°09' W 005°22'0 0.0
2016-Jul-14 16:30N 36°09' W 005°22'0 0.0
2016-Jul-14 15:30N 36°09' W 005°22'0 0.0
2016-Jul-14 14:33N 36°09' W 005°22'0 0.0
2016-Jul-14 13:33N 36°09' W 005°22'0 0.0
2016-Jul-14 12:30N 36°09' W 005°22'0 0.0
2016-Jul-14 11:27N 36°09' W 005°22'0 0.0
2016-Jul-14 10:33N 36°09' W 005°22'0 0.0
2016-Jul-14 09:23N 36°09' W 005°22'0 0.0
2016-Jul-14 08:32N 36°09' W 005°22'0 0.0
2016-Jul-14 07:33N 36°09' W 005°22'0 0.0
2016-Jul-14 06:29N 36°09' W 005°22'0 0.0
2016-Jul-14 05:33N 36°09' W 005°22'6 5.6
2016-Jul-14 04:33N 36°03' W 005°22'  

Dump ship's entire track history